createdAt,value
2022-11-24T00:01:26.183Z,7.30
2022-11-24T00:03:56.451Z,7.20
2022-11-24T00:06:24.426Z,7.00
2022-11-24T00:08:52.305Z,7.00
2022-11-24T00:11:30.508Z,7.10
2022-11-24T00:13:58.858Z,7.10
2022-11-24T00:16:29.021Z,7.10
2022-11-24T00:18:58.448Z,7.10
2022-11-24T00:21:29.271Z,7.20
2022-11-24T00:23:57.552Z,7.20
2022-11-24T00:26:30.999Z,7.20
2022-11-24T00:29:00.993Z,7.20
2022-11-24T00:31:31.211Z,7.10
2022-11-24T00:34:01.115Z,7.00
2022-11-24T00:36:30.811Z,7.00
2022-11-24T00:39:00.933Z,7.10
2022-11-24T00:41:29.276Z,7.20
2022-11-24T00:43:57.686Z,7.20
2022-11-24T00:46:25.734Z,7.10
2022-11-24T00:48:53.905Z,7.10
2022-11-24T00:51:23.484Z,7.20
2022-11-24T00:53:50.878Z,7.10
2022-11-24T00:56:18.277Z,7.10
2022-11-24T00:58:45.580Z,7.10
2022-11-24T01:01:19.384Z,7.10
2022-11-24T01:03:47.412Z,7.40
2022-11-24T01:06:17.551Z,7.40
2022-11-24T01:08:46.195Z,7.60
2022-11-24T01:11:22.348Z,7.80
2022-11-24T01:13:53.176Z,7.90
2022-11-24T01:16:33.200Z,7.90
2022-11-24T01:19:01.445Z,8.00
2022-11-24T01:21:28.790Z,8.00
2022-11-24T01:23:57.439Z,8.00
2022-11-24T01:26:24.856Z,7.90
2022-11-24T01:28:56.941Z,7.90
2022-11-24T01:31:25.537Z,7.80
2022-11-24T01:33:53.828Z,7.80
2022-11-24T01:36:22.277Z,7.70
2022-11-24T01:38:49.898Z,7.70
2022-11-24T01:41:19.174Z,7.70
2022-11-24T01:43:47.859Z,7.60
2022-11-24T01:46:30.682Z,7.50
2022-11-24T01:49:24.231Z,7.40
2022-11-24T01:52:05.404Z,7.20
2022-11-24T01:54:48.969Z,7.20
2022-11-24T01:57:26.336Z,7.30
2022-11-24T01:59:59.432Z,7.30
2022-11-24T02:02:29.457Z,7.20
2022-11-24T02:05:05.726Z,7.00
2022-11-24T02:07:34.846Z,7.10
2022-11-24T02:10:07.856Z,7.20
2022-11-24T02:12:37.794Z,7.20
2022-11-24T02:15:05.751Z,7.30
2022-11-24T02:17:33.103Z,7.40
2022-11-24T02:20:09.324Z,7.60
2022-11-24T02:23:10.466Z,7.70
2022-11-24T02:25:58.680Z,7.80
2022-11-24T02:28:30.207Z,7.90
2022-11-24T02:30:59.872Z,7.90
2022-11-24T02:33:27.699Z,8.10
2022-11-24T02:35:55.179Z,8.20
2022-11-24T02:38:33.876Z,8.20
2022-11-24T02:41:07.216Z,8.10
2022-11-24T02:43:42.653Z,8.10
2022-11-24T02:46:10.850Z,8.10
2022-11-24T02:48:39.015Z,8.10
2022-11-24T02:51:06.668Z,8.20
2022-11-24T02:53:34.207Z,8.00
2022-11-24T02:56:01.557Z,7.90
2022-11-24T02:58:28.993Z,7.80
2022-11-24T03:00:57.976Z,7.80
2022-11-24T03:03:26.268Z,7.80
2022-11-24T03:05:53.764Z,7.70
2022-11-24T03:08:21.182Z,7.60
2022-11-24T03:10:49.114Z,7.60
2022-11-24T03:13:16.544Z,7.80
2022-11-24T03:15:43.972Z,7.90
2022-11-24T03:18:11.401Z,7.90
2022-11-24T03:20:38.745Z,8.00
2022-11-24T03:23:06.130Z,8.10
2022-11-24T03:25:33.463Z,8.20
2022-11-24T03:28:00.907Z,8.30
2022-11-24T03:30:28.341Z,8.40
2022-11-24T03:32:55.677Z,8.50
2022-11-24T03:35:23.065Z,8.50
2022-11-24T03:37:50.415Z,8.50
2022-11-24T03:40:18.128Z,8.50
2022-11-24T03:42:45.522Z,8.50
2022-11-24T03:48:00.344Z,8.60
2022-11-24T03:50:27.736Z,8.60
2022-11-24T03:52:55.043Z,8.70
2022-11-24T03:55:22.407Z,8.70
2022-11-24T03:57:49.736Z,8.80
2022-11-24T04:00:17.627Z,8.70
2022-11-24T04:02:45.085Z,8.70
2022-11-24T04:05:12.590Z,8.70
2022-11-24T04:07:40.191Z,8.70
2022-11-24T04:10:08.261Z,8.60
2022-11-24T04:12:44.847Z,8.60
2022-11-24T04:15:18.700Z,8.60
2022-11-24T04:17:47.485Z,8.50
2022-11-24T04:20:15.757Z,8.50
2022-11-24T04:22:43.345Z,8.40
2022-11-24T04:25:10.872Z,8.40
2022-11-24T04:27:38.666Z,8.40
2022-11-24T04:30:07.937Z,8.40
2022-11-24T04:32:36.184Z,8.40
2022-11-24T04:35:04.309Z,8.40
2022-11-24T04:37:31.564Z,8.40
2022-11-24T04:39:58.867Z,8.40
2022-11-24T04:42:26.306Z,8.50
2022-11-24T04:44:53.548Z,8.50
2022-11-24T04:47:22.726Z,8.50
2022-11-24T04:49:51.147Z,8.40
2022-11-24T04:52:20.580Z,8.40
2022-11-24T04:54:48.705Z,8.30
2022-11-24T04:57:21.359Z,8.30
2022-11-24T04:59:50.215Z,8.20
2022-11-24T05:02:17.835Z,8.20
2022-11-24T05:04:46.097Z,8.20
2022-11-24T05:07:19.360Z,8.30
2022-11-24T05:10:06.227Z,8.50
2022-11-24T05:12:33.642Z,8.50
2022-11-24T05:15:02.847Z,8.50
2022-11-24T05:17:31.823Z,8.40
2022-11-24T05:19:59.514Z,8.50
2022-11-24T05:22:29.527Z,8.50
2022-11-24T05:24:56.929Z,8.50
2022-11-24T05:27:24.634Z,8.50
2022-11-24T05:29:51.916Z,8.40
2022-11-24T05:32:19.207Z,8.40
2022-11-24T05:34:46.550Z,8.30
2022-11-24T05:37:14.148Z,8.30
2022-11-24T05:39:41.448Z,8.20
2022-11-24T05:42:27.724Z,8.20
2022-11-24T05:44:55.068Z,8.10
2022-11-24T05:47:23.205Z,8.10
2022-11-24T05:49:50.430Z,8.10
2022-11-24T05:52:17.877Z,8.20
2022-11-24T05:54:45.186Z,8.20
2022-11-24T05:57:13.195Z,8.10
2022-11-24T05:59:40.606Z,8.00
2022-11-24T06:02:08.029Z,7.90
2022-11-24T06:04:35.968Z,7.90
2022-11-24T06:07:07.074Z,7.80
2022-11-24T06:09:37.787Z,7.60
2022-11-24T06:12:06.914Z,7.60
2022-11-24T06:14:34.916Z,7.60
2022-11-24T06:17:03.320Z,7.60
2022-11-24T06:19:30.624Z,7.60
2022-11-24T06:21:58.075Z,7.50
2022-11-24T06:24:25.331Z,7.50
2022-11-24T06:26:52.751Z,7.50
2022-11-24T06:29:20.022Z,7.40
2022-11-24T06:36:48.113Z,7.40
2022-11-24T06:39:15.101Z,7.40
2022-11-24T06:41:42.417Z,7.30
2022-11-24T06:44:09.686Z,7.40
2022-11-24T06:46:37.521Z,7.60
2022-11-24T06:49:04.957Z,7.60
2022-11-24T06:51:32.239Z,7.40
2022-11-24T06:53:59.563Z,7.20
2022-11-24T06:56:26.943Z,7.20
2022-11-24T06:58:54.439Z,7.50
2022-11-24T07:01:24.151Z,7.70
2022-11-24T07:03:52.728Z,8.00
2022-11-24T07:06:21.695Z,8.20
2022-11-24T07:08:49.955Z,8.30
2022-11-24T07:11:20.762Z,8.30
2022-11-24T07:13:48.653Z,8.40
2022-11-24T07:16:24.146Z,8.40
2022-11-24T07:18:52.883Z,8.50
2022-11-24T07:21:21.953Z,8.40
2022-11-24T07:23:50.617Z,8.50
2022-11-24T07:26:18.636Z,8.50
2022-11-24T07:28:46.600Z,8.50
2022-11-24T07:31:20.036Z,8.50
2022-11-24T07:33:55.010Z,8.50
2022-11-24T07:36:23.431Z,8.40
2022-11-24T07:38:51.120Z,8.40
2022-11-24T07:41:19.693Z,8.30
2022-11-24T07:43:48.335Z,8.30
2022-11-24T07:46:17.673Z,8.40
2022-11-24T07:48:45.500Z,8.40
2022-11-24T07:51:13.030Z,8.50
2022-11-24T07:53:40.459Z,8.60
2022-11-24T07:56:09.268Z,8.60
2022-11-24T07:58:37.457Z,8.70
2022-11-24T08:01:18.437Z,8.70
2022-11-24T08:03:47.088Z,8.70
2022-11-24T08:06:25.128Z,8.70
2022-11-24T08:08:55.630Z,8.70
2022-11-24T08:11:23.211Z,8.70
2022-11-24T08:13:50.636Z,8.70
2022-11-24T08:16:19.428Z,8.70
2022-11-24T08:18:53.335Z,8.80
2022-11-24T08:21:23.267Z,8.90
2022-11-24T08:23:57.068Z,8.90
2022-11-24T08:26:25.195Z,8.80
2022-11-24T08:28:58.410Z,8.70
2022-11-24T08:31:44.372Z,8.50
2022-11-24T08:34:12.002Z,8.70
2022-11-24T08:36:40.066Z,8.80
2022-11-24T08:39:07.837Z,9.10
2022-11-24T08:41:47.252Z,9.80
2022-11-24T08:44:39.749Z,10.10
2022-11-24T08:47:07.254Z,9.70
2022-11-24T08:49:34.961Z,9.60
2022-11-24T08:52:02.292Z,10.10
2022-11-24T08:54:29.688Z,10.80
2022-11-24T08:56:57.058Z,10.70
2022-11-24T08:59:24.497Z,10.30
2022-11-24T09:01:52.153Z,10.90
2022-11-24T09:04:23.814Z,11.50
2022-11-24T09:07:05.480Z,11.70
2022-11-24T09:09:37.892Z,11.50
2022-11-24T09:12:13.015Z,12.00
2022-11-24T09:14:41.936Z,13.20
2022-11-24T09:17:09.307Z,14.30
2022-11-24T09:19:36.843Z,14.70
2022-11-24T09:22:05.397Z,15.70
2022-11-24T09:24:32.956Z,15.20
2022-11-24T09:27:00.528Z,15.70
2022-11-24T09:29:27.820Z,15.50
2022-11-24T09:31:55.073Z,14.30
2022-11-24T09:34:22.446Z,13.50
2022-11-24T09:36:51.463Z,14.50
2022-11-24T09:39:18.925Z,15.00
2022-11-24T09:42:05.858Z,15.20
2022-11-24T09:45:02.729Z,15.80
2022-11-24T09:47:48.682Z,15.00
2022-11-24T09:50:20.810Z,15.90
2022-11-24T09:53:25.823Z,16.10
2022-11-24T09:55:58.333Z,16.40
2022-11-24T09:59:04.032Z,16.20
2022-11-24T10:01:37.460Z,16.90
2022-11-24T10:04:13.183Z,16.50
2022-11-24T10:07:11.574Z,16.40
2022-11-24T10:09:57.979Z,17.40
2022-11-24T10:12:59.265Z,17.30
2022-11-24T10:16:12.348Z,17.20
2022-11-24T10:19:13.072Z,17.70
2022-11-24T10:22:17.786Z,17.50
2022-11-24T10:25:14.090Z,16.50
2022-11-24T10:27:48.909Z,16.00
2022-11-24T10:30:19.319Z,17.00
2022-11-24T10:33:18.213Z,17.30
2022-11-24T10:36:01.946Z,16.70
2022-11-24T10:38:40.238Z,15.80
2022-11-24T10:41:14.481Z,15.80
2022-11-24T10:43:43.018Z,15.40
2022-11-24T10:46:28.384Z,13.20
2022-11-24T10:49:00.747Z,12.20
2022-11-24T10:51:38.663Z,11.60
2022-11-24T10:54:21.668Z,11.30
2022-11-24T10:56:52.010Z,11.20
2022-11-24T10:59:25.453Z,11.10
2022-11-24T11:01:53.375Z,11.10
2022-11-24T11:04:25.133Z,11.00
2022-11-24T11:06:52.488Z,11.00
2022-11-24T11:09:21.776Z,11.00
2022-11-24T11:11:52.999Z,11.00
2022-11-24T11:14:32.853Z,10.90
2022-11-24T11:17:00.196Z,10.90
2022-11-24T11:20:01.680Z,10.90
2022-11-24T11:22:37.100Z,10.80
2022-11-24T11:25:24.668Z,10.80
2022-11-24T11:28:15.011Z,10.80
2022-11-24T11:31:16.681Z,10.80
2022-11-24T11:34:05.345Z,10.80
2022-11-24T11:36:35.489Z,10.70
2022-11-24T11:39:03.912Z,10.70
2022-11-24T11:41:35.930Z,10.70
2022-11-24T11:44:58.254Z,10.70
2022-11-24T11:47:31.632Z,10.80
2022-11-24T11:49:58.946Z,10.80
2022-11-24T11:52:38.094Z,10.80
2022-11-24T11:55:24.111Z,10.80
2022-11-24T11:58:04.841Z,10.80
2022-11-24T12:00:38.636Z,10.80
2022-11-24T12:03:12.172Z,10.90
2022-11-24T12:05:47.385Z,10.80
2022-11-24T12:08:21.814Z,10.80
2022-11-24T12:10:59.396Z,10.80
2022-11-24T12:13:53.502Z,10.80
2022-11-24T12:16:57.989Z,10.80
2022-11-24T12:19:44.013Z,10.80
2022-11-24T12:22:47.386Z,10.70
2022-11-24T12:25:45.103Z,10.80
2022-11-24T12:28:18.607Z,10.70
2022-11-24T12:31:06.109Z,10.80
2022-11-24T12:34:03.065Z,10.80
2022-11-24T12:36:44.398Z,10.70
2022-11-24T12:39:45.992Z,10.70
2022-11-24T12:42:39.416Z,10.80
2022-11-24T12:45:09.627Z,10.70
2022-11-24T12:48:22.406Z,10.70
2022-11-24T12:50:52.200Z,10.60
2022-11-24T12:53:24.474Z,10.60
2022-11-24T12:55:53.293Z,10.60
2022-11-24T12:58:29.563Z,10.60
2022-11-24T13:01:30.329Z,10.60
2022-11-24T13:04:15.739Z,10.70
2022-11-24T13:06:54.418Z,10.70
2022-11-24T13:09:21.729Z,10.80
2022-11-24T13:12:15.629Z,10.70
2022-11-24T13:14:49.758Z,10.70
2022-11-24T13:17:50.254Z,10.80
2022-11-24T13:20:21.576Z,10.80
2022-11-24T13:22:58.712Z,10.80
2022-11-24T13:25:30.947Z,10.70
2022-11-24T13:28:00.250Z,10.70
2022-11-24T13:30:33.357Z,10.60
2022-11-24T13:33:16.626Z,10.70
2022-11-24T13:36:02.862Z,10.70
2022-11-24T13:38:43.477Z,10.50
2022-11-24T13:41:33.357Z,10.50
2022-11-24T13:44:16.038Z,10.50
2022-11-24T13:47:22.991Z,10.40
2022-11-24T13:49:50.335Z,10.50
2022-11-24T13:52:36.586Z,10.50
2022-11-24T13:55:13.200Z,10.40
2022-11-24T13:57:46.659Z,10.50
2022-11-24T14:00:34.992Z,10.40
2022-11-24T14:03:27.345Z,10.30
2022-11-24T14:05:54.988Z,10.30
2022-11-24T14:08:26.816Z,10.10
2022-11-24T14:10:56.125Z,10.20
2022-11-24T14:13:23.596Z,10.40
2022-11-24T14:16:10.562Z,10.40
2022-11-24T14:18:40.289Z,10.40
2022-11-24T14:21:23.002Z,10.20
2022-11-24T14:23:54.262Z,10.20
2022-11-24T14:26:41.858Z,10.30
2022-11-24T14:29:15.994Z,10.10
2022-11-24T14:31:58.990Z,10.10
2022-11-24T14:34:28.801Z,10.00
2022-11-24T14:36:57.732Z,9.80
2022-11-24T14:39:26.915Z,9.60
2022-11-24T14:42:07.946Z,9.70
2022-11-24T14:44:46.041Z,9.70
2022-11-24T14:47:30.216Z,9.70
2022-11-24T14:50:06.321Z,9.50
2022-11-24T14:52:34.204Z,9.50
2022-11-24T14:55:21.261Z,9.40
2022-11-24T14:57:48.975Z,9.30
2022-11-24T15:00:25.066Z,9.20
2022-11-24T15:03:08.390Z,9.10
2022-11-24T15:05:55.756Z,9.00
2022-11-24T15:08:25.484Z,8.80
2022-11-24T15:10:59.011Z,8.70
2022-11-24T15:13:26.681Z,8.60
2022-11-24T15:16:02.426Z,8.40
2022-11-24T15:18:43.130Z,8.30
2022-11-24T15:21:17.266Z,8.20
2022-11-24T15:24:06.098Z,8.10
2022-11-24T15:26:38.480Z,8.10
2022-11-24T15:29:09.805Z,8.00
2022-11-24T15:31:38.368Z,7.90
2022-11-24T15:34:06.287Z,7.80
2022-11-24T15:36:33.645Z,7.80
2022-11-24T15:39:00.934Z,7.80
2022-11-24T15:41:31.067Z,7.90
2022-11-24T15:43:59.335Z,7.90
2022-11-24T15:46:28.705Z,7.70
2022-11-24T15:48:56.170Z,7.70
2022-11-24T15:51:26.199Z,7.70
2022-11-24T15:54:00.245Z,7.60
2022-11-24T15:56:30.978Z,7.50
2022-11-24T15:58:58.285Z,7.40
2022-11-24T16:01:31.192Z,7.30
2022-11-24T16:03:58.702Z,7.40
2022-11-24T16:06:26.107Z,7.40
2022-11-24T16:08:54.366Z,7.40
2022-11-24T16:11:22.495Z,7.50
2022-11-24T16:13:53.345Z,7.50
2022-11-24T16:16:23.122Z,7.50
2022-11-24T16:18:50.821Z,7.50
2022-11-24T16:21:18.178Z,7.50
2022-11-24T16:23:46.500Z,7.50
2022-11-24T16:26:13.840Z,7.60
2022-11-24T16:28:41.974Z,7.40
2022-11-24T16:31:09.325Z,7.40
2022-11-24T16:33:40.512Z,7.20
2022-11-24T16:36:08.408Z,7.20
2022-11-24T16:38:35.683Z,7.10
2022-11-24T16:41:03.111Z,7.00
2022-11-24T16:43:30.744Z,7.10
2022-11-24T16:46:21.247Z,6.90
2022-11-24T16:48:52.464Z,6.80
2022-11-24T16:51:22.044Z,6.80
2022-11-24T16:53:56.317Z,6.80
2022-11-24T16:56:23.551Z,6.90
2022-11-24T16:58:50.862Z,6.80
2022-11-24T17:01:18.225Z,6.80
2022-11-24T17:03:45.882Z,6.90
2022-11-24T17:06:16.045Z,6.80
2022-11-24T17:08:45.475Z,6.60
2022-11-24T17:11:18.704Z,6.60
2022-11-24T17:13:47.339Z,6.40
2022-11-24T17:16:17.109Z,6.40
2022-11-24T17:18:45.249Z,6.40
2022-11-24T17:21:21.395Z,6.50
2022-11-24T17:23:52.950Z,6.60
2022-11-24T17:26:20.246Z,6.70
2022-11-24T17:28:47.649Z,6.70
2022-11-24T17:31:29.178Z,6.80
2022-11-24T17:33:58.393Z,6.90
2022-11-24T17:36:26.535Z,6.90
2022-11-24T17:38:54.344Z,6.90
2022-11-24T17:41:23.058Z,7.10
2022-11-24T17:43:55.838Z,7.30
2022-11-24T17:46:24.510Z,7.40
2022-11-24T17:48:51.847Z,7.40
2022-11-24T17:51:21.433Z,7.30
2022-11-24T17:53:50.394Z,7.40
2022-11-24T17:56:25.490Z,7.40
2022-11-24T17:59:03.089Z,7.30
2022-11-24T18:01:31.409Z,7.20
2022-11-24T18:03:58.824Z,7.10
2022-11-24T18:06:28.548Z,7.00
2022-11-24T18:08:57.208Z,7.00
2022-11-24T18:11:31.665Z,7.10
2022-11-24T18:14:02.322Z,7.00
2022-11-24T18:16:32.331Z,7.10
2022-11-24T18:19:08.660Z,7.30
2022-11-24T18:21:38.706Z,7.30
2022-11-24T18:24:07.162Z,7.10
2022-11-24T18:26:34.499Z,7.20
2022-11-24T18:29:01.803Z,7.30
2022-11-24T18:31:31.016Z,7.30
2022-11-24T18:33:59.746Z,7.20
2022-11-24T18:36:30.530Z,7.40
2022-11-24T18:39:01.586Z,7.50
2022-11-24T18:41:28.870Z,7.40
2022-11-24T18:43:56.214Z,7.30
2022-11-24T18:46:23.653Z,7.30
2022-11-24T18:48:53.056Z,7.40
2022-11-24T18:51:22.671Z,7.30
2022-11-24T18:53:54.481Z,7.30
2022-11-24T18:56:21.802Z,7.40
2022-11-24T18:58:53.431Z,7.30
2022-11-24T19:01:27.063Z,7.30
2022-11-24T19:03:57.803Z,7.20
2022-11-24T19:06:33.948Z,7.20
2022-11-24T19:09:07.208Z,7.00
2022-11-24T19:11:37.267Z,7.00
2022-11-24T19:14:06.580Z,6.90
2022-11-24T19:16:34.428Z,6.80
2022-11-24T19:19:02.608Z,6.80
2022-11-24T19:21:37.111Z,6.70
2022-11-24T19:24:13.050Z,6.50
2022-11-24T19:26:40.579Z,6.50
2022-11-24T19:29:08.422Z,6.30
2022-11-24T19:31:38.286Z,6.20
2022-11-24T19:34:07.799Z,6.10
2022-11-24T19:36:35.656Z,5.80
2022-11-24T19:39:04.727Z,5.70
2022-11-24T19:41:33.721Z,5.70
2022-11-24T19:44:01.011Z,5.60
2022-11-24T19:46:31.830Z,5.40
2022-11-24T19:49:00.862Z,5.30
2022-11-24T19:51:31.234Z,5.20
2022-11-24T19:53:59.540Z,5.20
2022-11-24T19:56:29.080Z,5.20
2022-11-24T19:58:56.765Z,5.10
2022-11-24T20:01:26.611Z,5.00
2022-11-24T20:03:58.915Z,5.00
2022-11-24T20:06:46.788Z,4.90
2022-11-24T20:09:16.805Z,4.80
2022-11-24T20:11:44.700Z,4.80
2022-11-24T20:14:13.654Z,4.70
2022-11-24T20:16:41.435Z,4.60
2022-11-24T20:19:12.345Z,4.60
2022-11-24T20:21:41.663Z,4.50
2022-11-24T20:24:15.244Z,4.50
2022-11-24T20:26:48.397Z,4.50
2022-11-24T20:29:16.512Z,4.50
2022-11-24T20:31:46.601Z,4.50
2022-11-24T20:34:14.880Z,4.60
2022-11-24T20:36:45.095Z,4.50
2022-11-24T20:39:15.792Z,4.50
2022-11-24T20:41:43.517Z,4.50
2022-11-24T20:44:15.304Z,4.70
2022-11-24T20:46:44.800Z,4.80
2022-11-24T20:49:15.002Z,4.70
2022-11-24T20:51:44.157Z,4.90
2022-11-24T20:54:13.082Z,4.80
2022-11-24T20:56:42.923Z,4.80
2022-11-24T20:59:13.681Z,4.70
2022-11-24T21:01:43.919Z,4.80
2022-11-24T21:04:13.827Z,4.90
2022-11-24T21:06:41.429Z,4.70
2022-11-24T21:09:09.309Z,4.80
2022-11-24T21:11:37.516Z,4.80
2022-11-24T21:14:06.134Z,4.80
2022-11-24T21:16:36.562Z,4.70
2022-11-24T21:19:12.789Z,4.70
2022-11-24T21:21:42.501Z,4.80
2022-11-24T21:24:14.712Z,4.80
2022-11-24T21:26:43.694Z,4.70
2022-11-24T21:29:17.009Z,4.90
2022-11-24T21:31:44.547Z,5.10
2022-11-24T21:34:16.005Z,5.20
2022-11-24T21:36:45.145Z,5.30
2022-11-24T21:39:14.137Z,5.30
2022-11-24T21:41:42.701Z,5.20
2022-11-24T21:44:12.529Z,5.30
2022-11-24T21:46:44.985Z,5.30
2022-11-24T21:49:15.318Z,5.30
2022-11-24T21:51:42.672Z,5.40
2022-11-24T21:54:09.975Z,5.60
2022-11-24T21:56:37.334Z,5.80
2022-11-24T21:59:04.595Z,5.90
2022-11-24T22:01:31.969Z,6.00
2022-11-24T22:03:59.317Z,6.10
2022-11-24T22:06:26.633Z,6.20
2022-11-24T22:08:55.218Z,6.30
2022-11-24T22:11:24.236Z,6.30
2022-11-24T22:13:52.336Z,6.40
2022-11-24T22:16:22.165Z,6.60
2022-11-24T22:18:50.299Z,6.60
2022-11-24T22:21:20.144Z,6.60
2022-11-24T22:23:51.360Z,6.70
2022-11-24T22:26:22.024Z,6.70
2022-11-24T22:28:50.197Z,6.70
2022-11-24T22:31:22.978Z,6.70
2022-11-24T22:33:51.695Z,6.80
2022-11-24T22:36:21.221Z,6.80
2022-11-24T22:38:57.374Z,6.80
2022-11-24T22:41:25.565Z,6.80
2022-11-24T22:43:53.969Z,6.90
2022-11-24T22:46:23.655Z,6.90
2022-11-24T22:48:52.947Z,6.70
2022-11-24T22:51:26.215Z,6.60
2022-11-24T22:53:56.324Z,6.40
2022-11-24T22:56:24.823Z,6.40
2022-11-24T22:58:52.145Z,6.30
2022-11-24T23:01:22.402Z,6.30
2022-11-24T23:03:51.098Z,6.00
2022-11-24T23:06:23.950Z,5.90
2022-11-24T23:08:52.216Z,5.90
2022-11-24T23:11:37.208Z,5.90
2022-11-24T23:14:08.248Z,6.00
2022-11-24T23:16:35.725Z,6.10
2022-11-24T23:19:03.594Z,6.20
2022-11-24T23:21:33.670Z,6.20
2022-11-24T23:24:02.963Z,6.20
2022-11-24T23:26:33.231Z,6.20
2022-11-24T23:29:00.668Z,6.20
2022-11-24T23:31:28.898Z,6.20
2022-11-24T23:33:58.514Z,6.30
2022-11-24T23:36:26.806Z,6.30
2022-11-24T23:38:54.398Z,6.40
2022-11-24T23:41:24.764Z,6.30
2022-11-24T23:43:52.705Z,6.40
2022-11-24T23:46:22.283Z,6.40
2022-11-24T23:48:51.273Z,6.40
2022-11-24T23:51:24.057Z,6.40
2022-11-24T23:53:52.050Z,6.40
2022-11-24T23:56:24.672Z,6.30
2022-11-24T23:58:55.916Z,6.40
